Time;durP1;ratioP1;P1;durP2;ratioP2;P2;SDS_P1;SDS_P2;PMS_P1;PMS_P2;Temp;Humidity;BMP_temperature;BMP_pressure;BME280_temperature;BME280_humidity;BME280_pressure;Samples;Min_cycle;Max_cycle;Signal;HPM_P1;HPM_P2
2021/07/03 00:01:28;;;;;;;11.23;9.10;;;17.80;99.90;;;;;;5077924;28;20458;-68
2021/07/03 00:03:57;;;;;;;12.40;9.73;;;17.70;99.90;;;;;;5077413;28;20462;-68
2021/07/03 00:06:26;;;;;;;10.40;9.30;;;17.60;97.60;;;;;;5075939;28;20926;-67
2021/07/03 00:08:52;;;;;;;11.13;9.40;;;17.60;99.90;;;;;;5076855;28;20541;-68
2021/07/03 00:11:19;;;;;;;11.67;9.73;;;17.60;99.90;;;;;;5077588;28;20465;-69
2021/07/03 00:13:46;;;;;;;10.30;9.20;;;17.60;99.90;;;;;;5076763;28;20462;-69
2021/07/03 00:16:15;;;;;;;11.10;9.70;;;17.50;99.90;;;;;;5076249;28;20481;-67
2021/07/03 00:18:41;;;;;;;14.97;10.07;;;17.50;99.90;;;;;;5077890;28;20486;-67
2021/07/03 00:21:08;;;;;;;12.00;9.97;;;17.50;99.90;;;;;;5077715;28;20911;-68
2021/07/03 00:23:36;;;;;;;15.70;10.60;;;17.50;99.90;;;;;;5077656;28;20454;-68
2021/07/03 00:26:03;;;;;;;12.00;10.03;;;17.50;99.90;;;;;;5076824;28;20564;-68
2021/07/03 00:28:29;;;;;;;13.70;10.30;;;17.40;99.90;;;;;;5077316;28;20535;-67
2021/07/03 00:30:56;;;;;;;11.33;9.90;;;17.40;99.90;;;;;;5077097;28;20461;-68
2021/07/03 00:33:23;;;;;;;11.97;10.30;;;17.40;99.90;;;;;;5077190;28;20512;-67
2021/07/03 00:35:50;;;;;;;12.60;10.50;;;17.40;99.90;;;;;;5077004;28;20515;-67
2021/07/03 00:38:16;;;;;;;12.90;10.10;;;17.50;99.90;;;;;;5077106;28;20960;-67
2021/07/03 00:40:44;;;;;;;13.37;9.90;;;17.50;99.90;;;;;;5077412;28;20919;-67
2021/07/03 00:43:13;;;;;;;11.77;10.57;;;17.50;99.90;;;;;;5077238;28;20831;-69
2021/07/03 00:45:40;;;;;;;12.47;10.83;;;17.40;99.90;;;;;;5076536;28;20906;-68
2021/07/03 00:48:07;;;;;;;13.60;10.77;;;17.40;99.90;;;;;;5076268;28;20546;-69
2021/07/03 00:50:34;;;;;;;17.30;12.10;;;17.40;99.90;;;;;;5076308;28;20937;-69
2021/07/03 00:53:01;;;;;;;13.83;11.67;;;17.30;99.90;;;;;;5076669;28;20760;-68
2021/07/03 00:55:30;;;;;;;12.80;11.23;;;17.30;99.90;;;;;;5077507;28;20454;-68
2021/07/03 00:57:58;;;;;;;16.23;11.83;;;17.20;99.90;;;;;;5076458;28;20482;-68
2021/07/03 01:00:25;;;;;;;15.50;12.30;;;17.20;99.90;;;;;;5076742;28;20454;-69
2021/07/03 01:02:52;;;;;;;14.77;11.47;;;17.20;99.90;;;;;;5076886;28;20469;-67
2021/07/03 01:05:19;;;;;;;15.90;12.17;;;17.20;99.90;;;;;;5077867;28;20462;-67
2021/07/03 01:07:48;;;;;;;13.60;11.57;;;17.20;99.90;;;;;;5077803;28;20458;-68
2021/07/03 01:10:23;;;;;;;15.20;11.87;;;17.20;99.90;;;;;;5076369;28;20959;-67
2021/07/03 01:12:51;;;;;;;15.47;12.70;;;17.10;99.90;;;;;;5077330;28;20461;-67
2021/07/03 01:15:19;;;;;;;14.33;12.23;;;17.10;99.90;;;;;;5076800;28;20837;-67
2021/07/03 01:17:49;;;;;;;13.93;11.23;;;17.10;99.90;;;;;;5075954;28;20826;-67
2021/07/03 01:20:17;;;;;;;14.30;12.13;;;17.10;99.90;;;;;;5077907;28;20445;-67
2021/07/03 01:22:47;;;;;;;14.83;12.90;;;17.20;99.90;;;;;;5076374;28;20910;-67
2021/07/03 01:25:15;;;;;;;14.67;12.10;;;17.20;99.90;;;;;;5076765;28;20469;-67
2021/07/03 01:27:42;;;;;;;17.83;13.83;;;17.20;99.90;;;;;;5076082;28;20454;-67
2021/07/03 01:30:11;;;;;;;15.87;13.47;;;17.20;99.90;;;;;;5076664;28;20539;-67
2021/07/03 01:32:39;;;;;;;12.77;11.40;;;17.20;99.90;;;;;;5076249;28;20462;-67
2021/07/03 01:35:06;;;;;;;15.33;12.17;;;17.10;99.90;;;;;;5076791;28;20752;-67
2021/07/03 01:37:33;;;;;;;13.90;11.80;;;17.10;99.90;;;;;;5075742;28;20805;-67
2021/07/03 01:40:01;;;;;;;17.47;12.53;;;17.10;99.90;;;;;;5076653;28;20469;-67
2021/07/03 01:42:28;;;;;;;15.23;12.60;;;17.10;99.90;;;;;;5076820;28;20516;-67
2021/07/03 01:44:54;;;;;;;16.67;12.77;;;17.10;99.90;;;;;;5076675;28;20784;-68
2021/07/03 01:47:21;;;;;;;16.57;13.50;;;17.10;99.90;;;;;;5076573;28;20482;-68
2021/07/03 01:49:48;;;;;;;20.13;14.03;;;17.00;99.90;;;;;;5076556;28;20462;-67
2021/07/03 01:52:17;;;;;;;19.87;13.17;;;17.00;99.90;;;;;;5077260;28;20465;-67
2021/07/03 01:54:44;;;;;;;18.73;13.87;;;17.00;99.90;;;;;;5077397;28;20836;-68
2021/07/03 01:57:12;;;;;;;15.87;13.40;;;16.90;99.90;;;;;;5076694;28;20845;-68
2021/07/03 01:59:39;;;;;;;21.07;13.30;;;16.80;99.90;;;;;;5078168;28;20464;-69
2021/07/03 02:02:06;;;;;;;14.20;12.27;;;16.80;99.90;;;;;;5078088;28;20454;-68
2021/07/03 02:04:32;;;;;;;16.90;13.43;;;16.70;99.90;;;;;;5077473;28;20469;-69
2021/07/03 02:06:59;;;;;;;17.10;13.43;;;16.70;99.90;;;;;;5077053;28;20915;-68
2021/07/03 02:09:26;;;;;;;21.37;14.37;;;16.70;99.90;;;;;;5076681;28;20450;-69
2021/07/03 02:11:53;;;;;;;18.43;15.07;;;16.60;99.90;;;;;;5077172;28;20474;-69
2021/07/03 02:14:21;;;;;;;17.67;13.87;;;16.60;99.90;;;;;;5077286;28;20454;-68
2021/07/03 02:16:47;;;;;;;22.27;14.33;;;16.60;99.90;;;;;;5076477;28;20474;-68
2021/07/03 02:19:14;;;;;;;16.47;13.80;;;16.60;99.90;;;;;;5078383;28;20817;-67
2021/07/03 02:21:41;;;;;;;18.33;15.03;;;16.50;99.90;;;;;;5078840;28;20473;-68
2021/07/03 02:24:11;;;;;;;19.77;14.07;;;16.50;99.90;;;;;;5077123;28;20461;-68
2021/07/03 02:26:41;;;;;;;20.47;14.80;;;16.50;99.90;;;;;;5076852;28;20517;-68
2021/07/03 02:29:08;;;;;;;21.90;15.77;;;16.50;99.90;;;;;;5078384;28;20454;-67
2021/07/03 02:31:36;;;;;;;22.43;14.77;;;16.50;99.90;;;;;;5080130;28;20453;-67
2021/07/03 02:34:04;;;;;;;18.50;15.57;;;16.40;99.90;;;;;;5079779;28;20465;-67
2021/07/03 02:36:31;;;;;;;18.97;14.03;;;16.40;99.90;;;;;;5080016;28;20461;-69
2021/07/03 02:38:57;;;;;;;18.90;14.27;;;16.40;99.90;;;;;;5080313;28;20457;-68
2021/07/03 02:41:25;;;;;;;18.63;14.60;;;16.40;99.90;;;;;;5080586;28;20813;-68
2021/07/03 02:43:51;;;;;;;18.50;14.70;;;16.30;99.90;;;;;;5080504;28;20466;-68
2021/07/03 02:46:18;;;;;;;21.80;15.50;;;16.30;99.90;;;;;;5080345;28;20454;-69
2021/07/03 02:48:46;;;;;;;17.83;14.07;;;16.30;99.90;;;;;;5081078;28;20477;-68
2021/07/03 02:51:13;;;;;;;18.90;14.43;;;16.30;99.90;;;;;;5080506;28;20455;-68
2021/07/03 02:53:39;;;;;;;23.23;15.70;;;16.30;99.90;;;;;;5082018;28;20459;-67
2021/07/03 02:56:06;;;;;;;17.57;14.40;;;16.30;99.90;;;;;;5081355;28;20899;-67
2021/07/03 02:58:33;;;;;;;21.33;14.43;;;16.30;99.90;;;;;;5081112;28;20484;-67
2021/07/03 03:01:00;;;;;;;18.63;15.20;;;16.30;99.90;;;;;;5080847;28;20476;-67
2021/07/03 03:03:26;;;;;;;21.37;14.83;;;16.20;99.90;;;;;;5080888;28;20480;-67
2021/07/03 03:05:55;;;;;;;19.57;14.10;;;16.30;99.90;;;;;;5081490;28;20458;-67
2021/07/03 03:08:22;;;;;;;19.83;15.23;;;16.30;99.90;;;;;;5080429;28;20482;-69
2021/07/03 03:10:51;;;;;;;20.57;15.27;;;16.30;99.90;;;;;;5079781;28;20454;-68
2021/07/03 03:13:18;;;;;;;20.70;15.50;;;16.20;99.90;;;;;;5080302;28;20826;-68
2021/07/03 03:15:45;;;;;;;20.47;16.10;;;16.20;99.90;;;;;;5080557;28;20454;-68
2021/07/03 03:18:11;;;;;;;22.87;16.50;;;16.20;99.90;;;;;;5079744;28;20482;-69
2021/07/03 03:20:38;;;;;;;20.00;16.23;;;16.20;99.90;;;;;;5080563;28;20473;-68
2021/07/03 03:23:06;;;;;;;18.53;15.43;;;16.20;99.90;;;;;;5079357;28;20454;-69
2021/07/03 03:25:33;;;;;;;18.80;14.53;;;16.20;99.90;;;;;;5078900;28;20454;-68
2021/07/03 03:28:00;;;;;;;22.60;15.60;;;16.20;99.90;;;;;;5078114;28;20461;-68
2021/07/03 03:30:26;;;;;;;21.50;15.63;;;16.10;99.90;;;;;;5079993;28;20451;-68
2021/07/03 03:32:53;;;;;;;19.10;16.60;;;16.10;99.90;;;;;;5078791;28;20549;-68
2021/07/03 03:35:20;;;;;;;18.00;15.63;;;16.10;99.90;;;;;;5078288;28;20906;-68
2021/07/03 03:37:47;;;;;;;19.57;16.07;;;16.10;99.90;;;;;;5078318;28;20481;-69
2021/07/03 03:40:16;;;;;;;22.90;16.77;;;16.10;99.90;;;;;;5079208;28;20520;-68
2021/07/03 03:42:42;;;;;;;22.10;16.03;;;16.20;99.90;;;;;;5078450;28;20458;-69
2021/07/03 03:45:10;;;;;;;25.07;16.40;;;16.20;99.90;;;;;;5078963;28;20799;-68
2021/07/03 03:47:37;;;;;;;21.10;17.17;;;16.20;99.90;;;;;;5079520;28;20845;-69
2021/07/03 03:50:05;;;;;;;21.50;16.23;;;16.20;99.90;;;;;;5080518;28;20971;-68
2021/07/03 03:52:33;;;;;;;20.70;17.07;;;16.10;99.90;;;;;;5078759;28;20553;-69
2021/07/03 03:55:00;;;;;;;21.80;16.10;;;16.20;99.90;;;;;;5077498;28;20461;-69
2021/07/03 03:57:30;;;;;;;21.13;17.40;;;16.10;99.90;;;;;;5077459;28;20481;-68
2021/07/03 03:59:58;;;;;;;20.80;16.50;;;16.20;99.90;;;;;;5077868;28;20545;-68
2021/07/03 04:02:25;;;;;;;22.27;17.87;;;16.20;99.90;;;;;;5076724;28;20484;-68
2021/07/03 04:04:52;;;;;;;22.00;17.43;;;16.20;99.90;;;;;;5077588;28;20457;-68
2021/07/03 04:07:19;;;;;;;23.33;16.03;;;16.20;99.90;;;;;;5078458;28;20457;-68
2021/07/03 04:09:46;;;;;;;20.63;16.30;;;16.20;99.90;;;;;;5077364;28;20454;-68
2021/07/03 04:12:14;;;;;;;18.47;16.07;;;16.20;99.90;;;;;;5077325;28;20462;-68
2021/07/03 04:14:42;;;;;;;21.03;16.43;;;16.20;99.90;;;;;;5077821;28;20914;-69
2021/07/03 04:17:09;;;;;;;21.70;16.67;;;16.30;99.90;;;;;;5077942;28;20472;-68
2021/07/03 04:19:36;;;;;;;20.43;16.00;;;16.30;99.90;;;;;;5077309;28;20840;-68
2021/07/03 04:22:03;;;;;;;20.37;16.93;;;16.30;99.90;;;;;;5077248;28;20653;-68
2021/07/03 04:24:30;;;;;;;20.93;16.77;;;16.40;99.90;;;;;;5077548;28;20465;-68
2021/07/03 04:26:57;;;;;;;20.07;17.00;;;16.50;99.90;;;;;;5078076;28;20769;-68
2021/07/03 04:29:23;;;;;;;22.03;15.50;;;16.50;99.90;;;;;;5078131;28;20454;-69
2021/07/03 04:31:51;;;;;;;21.10;16.07;;;16.60;99.90;;;;;;5078651;28;20465;-69
2021/07/03 04:34:18;;;;;;;18.53;15.30;;;16.60;99.90;;;;;;5078115;28;20941;-68
2021/07/03 04:36:45;;;;;;;21.93;16.50;;;16.60;99.90;;;;;;5078107;28;20455;-68
2021/07/03 04:39:11;;;;;;;23.03;17.90;;;16.70;99.90;;;;;;5077836;28;20478;-68
2021/07/03 04:41:38;;;;;;;18.10;14.93;;;16.70;99.90;;;;;;5079279;28;20469;-69
2021/07/03 04:44:06;;;;;;;24.03;16.63;;;16.80;99.90;;;;;;5079131;28;20469;-69
2021/07/03 04:46:33;;;;;;;23.40;16.90;;;16.80;99.90;;;;;;5078186;28;20461;-68
2021/07/03 04:49:02;;;;;;;21.40;15.80;;;16.90;99.90;;;;;;5078103;28;20482;-69
2021/07/03 04:51:29;;;;;;;20.83;15.80;;;16.90;99.90;;;;;;5078099;28;20914;-70
2021/07/03 04:53:56;;;;;;;23.90;15.40;;;17.00;99.90;;;;;;5077032;28;20465;-68
2021/07/03 04:56:24;;;;;;;19.07;14.83;;;17.00;99.90;;;;;;5078392;28;20448;-68
2021/07/03 04:58:51;;;;;;;22.17;16.73;;;17.00;99.90;;;;;;5076798;28;20863;-67
2021/07/03 05:01:17;;;;;;;19.00;15.73;;;17.00;99.90;;;;;;5075415;28;20793;-68
2021/07/03 05:03:44;;;;;;;20.43;16.03;;;17.00;99.90;;;;;;5075906;28;20469;-68
2021/07/03 05:06:12;;;;;;;20.33;16.20;;;17.00;99.90;;;;;;5077731;28;20458;-68
2021/07/03 05:08:39;;;;;;;18.87;15.40;;;17.00;99.90;;;;;;5077228;28;20461;-68
2021/07/03 05:11:08;;;;;;;17.63;15.40;;;17.10;99.90;;;;;;5077034;28;20465;-68
2021/07/03 05:13:35;;;;;;;20.80;15.23;;;17.20;99.90;;;;;;5076544;28;20462;-69
2021/07/03 05:16:02;;;;;;;17.20;15.20;;;17.20;99.90;;;;;;5075765;28;20454;-68
2021/07/03 05:18:29;;;;;;;22.50;16.30;;;17.20;99.90;;;;;;5076083;28;20481;-68
2021/07/03 05:20:56;;;;;;;20.80;16.67;;;17.20;99.90;;;;;;5076434;28;20458;-68
2021/07/03 05:23:24;;;;;;;20.27;16.50;;;17.20;99.90;;;;;;5077284;28;20461;-68
2021/07/03 05:25:52;;;;;;;18.60;14.43;;;17.30;99.90;;;;;;5076607;28;20515;-68
2021/07/03 05:28:19;;;;;;;22.57;14.27;;;17.20;99.90;;;;;;5075683;28;20754;-69
2021/07/03 05:30:48;;;;;;;20.33;15.93;;;17.30;99.90;;;;;;5075370;28;20470;-68
2021/07/03 05:33:15;;;;;;;19.03;15.43;;;17.40;99.90;;;;;;5076728;28;20469;-68
2021/07/03 05:35:41;;;;;;;16.60;14.20;;;17.50;99.90;;;;;;5075566;28;20790;-68
2021/07/03 05:38:08;;;;;;;18.03;15.20;;;17.60;99.90;;;;;;5076249;28;20556;-68
2021/07/03 05:40:36;;;;;;;17.93;13.73;;;17.70;99.90;;;;;;5076984;28;20919;-67
2021/07/03 05:43:03;;;;;;;18.23;14.40;;;17.70;99.90;;;;;;5077199;28;20537;-67
2021/07/03 05:45:30;;;;;;;19.47;14.20;;;17.70;99.90;;;;;;5077752;28;20454;-68
2021/07/03 05:47:56;;;;;;;18.20;14.13;;;17.70;99.90;;;;;;5076946;28;20567;-68
2021/07/03 05:50:25;;;;;;;20.73;14.97;;;17.70;90.80;;;;;;5076986;28;20768;-68
2021/07/03 05:52:52;;;;;;;21.93;14.03;;;17.70;86.40;;;;;;5075936;28;20481;-69
2021/07/03 05:55:19;;;;;;;18.87;13.87;;;17.70;93.70;;;;;;5077923;28;20472;-68
2021/07/03 05:57:47;;;;;;;16.63;14.00;;;17.70;97.40;;;;;;5079448;28;20477;-69
2021/07/03 06:00:16;;;;;;;18.50;13.70;;;17.80;92.20;;;;;;5077416;28;20461;-68
2021/07/03 06:02:42;;;;;;;18.40;13.77;;;17.80;86.00;;;;;;5077262;28;20785;-68
2021/07/03 06:05:10;;;;;;;19.07;12.90;;;17.90;37.90;;;;;;5080367;28;20759;-69
2021/07/03 06:07:36;;;;;;;15.93;12.10;;;18.00;28.50;;;;;;5080541;28;20465;-68
2021/07/03 06:10:04;;;;;;;14.63;12.40;;;18.00;26.20;;;;;;5079148;28;20772;-68
2021/07/03 06:12:31;;;;;;;16.73;12.80;;;18.00;27.60;;;;;;5079366;28;20771;-68
2021/07/03 06:14:59;;;;;;;16.63;13.13;;;18.20;5.80;;;;;;5079182;28;20510;-68
2021/07/03 06:17:26;;;;;;;13.97;12.27;;;18.20;1.00;;;;;;5078992;28;20971;-68
2021/07/03 06:19:52;;;;;;;16.20;10.70;;;18.30;1.00;;;;;;5079142;28;20970;-67
2021/07/03 06:22:19;;;;;;;14.20;11.50;;;18.40;1.00;;;;;;5078514;28;20477;-69
2021/07/03 06:24:47;;;;;;;14.67;11.30;;;18.50;1.00;;;;;;5079212;28;20465;-68
2021/07/03 06:27:14;;;;;;;15.60;10.90;;;18.60;1.00;;;;;;5080047;28;20458;-68
2021/07/03 06:29:41;;;;;;;13.00;10.50;;;18.80;1.00;;;;;;5079726;28;20450;-68
2021/07/03 06:32:10;;;;;;;13.17;10.10;;;18.90;1.00;;;;;;5080088;28;20469;-68
2021/07/03 06:34:37;;;;;;;13.53;9.60;;;18.90;1.00;;;;;;5079841;28;20454;-68
2021/07/03 06:37:04;;;;;;;12.97;9.33;;;18.90;1.00;;;;;;5079433;28;20476;-68
2021/07/03 06:39:31;;;;;;;12.30;9.53;;;19.00;1.00;;;;;;5078746;28;20489;-68
2021/07/03 06:41:58;;;;;;;12.40;10.07;;;19.00;1.00;;;;;;5079296;28;20462;-67
2021/07/03 06:44:24;;;;;;;9.93;8.67;;;19.00;1.00;;;;;;5078132;28;20458;-67
2021/07/03 06:46:53;;;;;;;11.53;9.83;;;19.10;1.00;;;;;;5079091;28;20784;-68
2021/07/03 06:49:21;;;;;;;10.30;9.00;;;19.10;1.00;;;;;;5079581;28;20454;-69
2021/07/03 06:51:48;;;;;;;12.40;8.37;;;19.20;1.00;;;;;;5080352;28;20821;-68
2021/07/03 06:54:14;;;;;;;12.83;9.53;;;19.20;1.00;;;;;;5079350;28;20469;-71
2021/07/03 06:56:41;;;;;;;11.63;9.30;;;19.30;1.00;;;;;;5079881;28;20784;-69
2021/07/03 06:59:08;;;;;;;14.93;8.47;;;19.30;1.00;;;;;;5079622;28;20535;-67
2021/07/03 07:01:35;;;;;;;9.80;8.80;;;19.20;1.00;;;;;;5079797;28;20483;-69
2021/07/03 07:04:01;;;;;;;11.30;9.80;;;19.30;1.00;;;;;;5080303;28;20466;-68
2021/07/03 07:06:30;;;;;;;14.50;9.50;;;19.30;1.00;;;;;;5079733;28;20458;-68
2021/07/03 07:08:56;;;;;;;12.30;9.80;;;19.40;1.00;;;;;;5079534;28;20481;-69
2021/07/03 07:11:23;;;;;;;12.27;9.97;;;19.40;1.00;;;;;;5079489;28;20464;-69
2021/07/03 07:13:50;;;;;;;14.83;10.70;;;19.40;1.00;;;;;;5079075;28;20484;-67
2021/07/03 07:16:17;;;;;;;13.93;10.40;;;19.40;1.00;;;;;;5077685;28;20469;-68
2021/07/03 07:18:43;;;;;;;12.23;10.83;;;19.50;1.00;;;;;;5079488;28;20539;-68
2021/07/03 07:21:10;;;;;;;10.23;9.23;;;19.50;1.00;;;;;;5079158;28;20469;-69
2021/07/03 07:23:38;;;;;;;10.27;9.17;;;19.50;1.00;;;;;;5079143;28;20459;-67
2021/07/03 07:26:05;;;;;;;10.67;9.57;;;19.50;1.00;;;;;;5079818;28;20462;-71
2021/07/03 07:28:31;;;;;;;13.00;10.30;;;19.60;1.00;;;;;;5078977;28;20927;-69
2021/07/03 07:30:58;;;;;;;11.40;9.43;;;19.70;1.00;;;;;;5079340;28;20824;-69
2021/07/03 07:33:25;;;;;;;14.13;9.63;;;19.80;1.00;;;;;;5078545;28;20481;-69
2021/07/03 07:35:51;;;;;;;12.43;10.40;;;19.90;1.00;;;;;;5078941;28;20458;-69
2021/07/03 07:38:18;;;;;;;14.23;10.50;;;19.90;1.00;;;;;;5078508;28;20504;-68
2021/07/03 07:40:46;;;;;;;14.00;10.97;;;19.80;1.00;;;;;;5078931;28;20468;-68
2021/07/03 07:43:13;;;;;;;11.53;10.37;;;19.90;99.90;;;;;;5078828;28;20463;-68
2021/07/03 07:45:40;;;;;;;13.10;10.60;;;20.00;1.00;;;;;;5079031;28;20776;-68
2021/07/03 07:48:06;;;;;;;14.27;10.40;;;20.00;1.00;;;;;;5077655;28;20493;-69
2021/07/03 07:50:33;;;;;;;12.47;10.70;;;20.20;1.00;;;;;;5077872;28;20921;-68
2021/07/03 07:53:00;;;;;;;15.90;11.17;;;20.20;1.00;;;;;;5078281;28;20451;-69
2021/07/03 07:55:26;;;;;;;11.57;10.37;;;20.30;99.90;;;;;;5078598;28;20554;-69
2021/07/03 07:57:54;;;;;;;12.73;10.73;;;20.30;99.90;;;;;;5077972;28;20523;-68
2021/07/03 08:00:22;;;;;;;12.47;10.60;;;20.30;99.90;;;;;;5078196;28;20482;-69
2021/07/03 08:02:49;;;;;;;12.10;10.90;;;20.40;1.00;;;;;;5077921;28;20763;-68
2021/07/03 08:05:17;;;;;;;11.23;9.90;;;20.40;1.00;;;;;;5077848;28;20454;-68
2021/07/03 08:07:44;;;;;;;14.10;11.33;;;20.50;99.90;;;;;;5078262;28;20469;-69
2021/07/03 08:10:11;;;;;;;12.93;11.10;;;20.50;99.90;;;;;;5078743;28;20449;-69
2021/07/03 08:12:39;;;;;;;11.67;10.43;;;20.60;99.90;;;;;;5078863;28;20522;-68
2021/07/03 08:15:08;;;;;;;13.80;10.77;;;20.70;99.90;;;;;;5078080;28;20458;-68
2021/07/03 08:17:42;;;;;;;11.37;9.70;;;20.70;57.40;;;;;;5079331;28;21071;-68
2021/07/03 08:20:10;;;;;;;13.87;9.63;;;20.70;47.20;;;;;;5077690;28;20512;-68
2021/07/03 08:22:36;;;;;;;12.93;10.30;;;20.80;1.00;;;;;;5077842;28;20465;-69
2021/07/03 08:25:04;;;;;;;11.40;9.60;;;20.90;1.00;;;;;;5077388;28;20763;-68
2021/07/03 08:27:30;;;;;;;11.13;9.03;;;21.00;1.00;;;;;;5077687;28;20790;-67
2021/07/03 08:29:57;;;;;;;9.63;8.30;;;21.10;1.00;;;;;;5077518;28;20458;-68
2021/07/03 08:32:25;;;;;;;11.80;9.60;;;21.30;99.90;;;;;;5077848;28;20469;-68
2021/07/03 08:34:52;;;;;;;9.17;8.27;;;21.30;1.00;;;;;;5077500;28;20465;-69
2021/07/03 08:37:18;;;;;;;10.20;9.27;;;21.20;1.00;;;;;;5078492;28;20465;-68
2021/07/03 08:39:45;;;;;;;10.10;9.10;;;21.30;1.00;;;;;;5077315;28;20654;-67
2021/07/03 08:42:12;;;;;;;11.43;9.53;;;21.30;1.00;;;;;;5076165;28;20512;-68
2021/07/03 08:44:44;;;;;;;12.23;9.73;;;21.40;1.00;;;;;;5077050;28;20465;-68
2021/07/03 08:47:10;;;;;;;10.50;9.50;;;21.40;1.00;;;;;;5076560;28;20748;-67
2021/07/03 08:49:38;;;;;;;10.40;9.30;;;21.30;1.00;;;;;;5076517;28;20451;-68
2021/07/03 08:52:06;;;;;;;12.20;9.90;;;21.20;1.00;;;;;;5075790;28;20454;-68
2021/07/03 08:54:32;;;;;;;10.53;9.20;;;21.10;1.00;;;;;;5076568;28;20469;-68
2021/07/03 08:57:00;;;;;;;12.27;9.50;;;21.10;1.00;;;;;;5076729;28;20465;-68
2021/07/03 08:59:29;;;;;;;12.30;9.60;;;21.30;1.00;;;;;;5075856;28;20474;-67
2021/07/03 09:01:58;;;;;;;10.97;9.87;;;21.30;1.00;;;;;;5076364;28;20470;-68
2021/07/03 09:04:34;;;;;;;10.40;8.30;;;21.30;1.00;;;;;;5076120;28;20499;-67
2021/07/03 09:07:14;;;;;;;13.30;9.90;;;21.30;1.00;;;;;;5075809;28;20438;-68
2021/07/03 09:09:41;;;;;;;8.83;7.90;;;21.30;1.00;;;;;;5076894;28;20748;-67
2021/07/03 09:12:09;;;;;;;10.80;9.70;;;21.30;1.00;;;;;;5077024;28;20466;-68
2021/07/03 09:14:36;;;;;;;11.30;9.00;;;21.40;1.00;;;;;;5075385;28;20462;-67
2021/07/03 09:17:03;;;;;;;9.77;8.03;;;21.50;1.00;;;;;;5076017;28;20459;-68
2021/07/03 09:19:31;;;;;;;10.77;7.60;;;21.60;1.00;;;;;;5076646;28;20508;-68
2021/07/03 09:21:59;;;;;;;10.27;9.27;;;21.70;1.00;;;;;;5076185;28;20929;-67
2021/07/03 09:24:32;;;;;;;10.17;8.20;;;21.60;1.00;;;;;;5076478;28;20462;-69
2021/07/03 09:27:00;;;;;;;10.83;8.57;;;21.60;1.00;;;;;;5076465;28;20702;-68
2021/07/03 09:29:27;;;;;;;9.10;8.20;;;21.60;1.00;;;;;;5075649;28;20462;-69
2021/07/03 09:31:54;;;;;;;9.20;8.03;;;21.60;1.00;;;;;;5076095;28;20458;-69
2021/07/03 09:34:22;;;;;;;13.43;8.17;;;21.70;1.00;;;;;;5077809;28;20820;-70
2021/07/03 09:36:49;;;;;;;9.33;8.20;;;21.70;1.00;;;;;;5079945;28;20574;-69
2021/07/03 09:39:22;;;;;;;6.80;6.20;;;21.70;1.00;;;;;;5078440;28;20482;-69
2021/07/03 09:41:52;;;;;;;8.13;7.30;;;21.70;1.00;;;;;;5079264;28;20503;-69
2021/07/03 09:44:18;;;;;;;8.50;7.60;;;21.90;1.00;;;;;;5083945;28;20460;-68
2021/07/03 09:46:48;;;;;;;9.23;7.50;;;21.90;1.00;;;;;;5085218;28;20450;-68
2021/07/03 09:49:17;;;;;;;8.43;7.60;;;21.90;99.90;;;;;;5082582;28;20807;-68
2021/07/03 09:51:44;;;;;;;8.33;7.40;;;21.80;99.90;;;;;;5081745;28;20457;-67
2021/07/03 09:54:12;;;;;;;10.90;7.93;;;21.70;99.90;;;;;;5082865;28;20458;-67
2021/07/03 09:56:40;;;;;;;8.10;7.30;;;21.70;1.00;;;;;;5084804;28;20455;-67
2021/07/03 09:59:09;;;;;;;8.83;6.97;;;21.70;1.00;;;;;;5085426;28;20488;-67
2021/07/03 10:01:39;;;;;;;9.03;7.23;;;21.80;1.00;;;;;;5085064;28;20465;-67
2021/07/03 10:04:06;;;;;;;7.10;6.40;;;22.00;99.90;;;;;;5083661;28;20521;-68
2021/07/03 10:06:37;;;;;;;8.23;7.40;;;22.00;99.90;;;;;;5084759;28;20465;-67
2021/07/03 10:09:08;;;;;;;8.37;7.30;;;22.10;99.90;;;;;;5083837;28;20512;-67
2021/07/03 10:11:42;;;;;;;7.33;6.63;;;22.20;99.90;;;;;;5085784;28;20508;-68
2021/07/03 10:14:10;;;;;;;7.40;5.93;;;22.30;99.90;;;;;;5085793;28;20438;-67
2021/07/03 10:16:37;;;;;;;8.40;6.80;;;22.60;99.90;;;;;;5085280;28;20526;-68
2021/07/03 10:19:09;;;;;;;7.43;6.53;;;22.90;99.90;;;;;;5082888;28;20457;-68
2021/07/03 10:21:36;;;;;;;6.60;6.00;;;23.10;99.90;;;;;;5083065;28;20465;-68
2021/07/03 10:24:04;;;;;;;7.50;6.53;;;23.00;99.90;;;;;;5082530;28;20454;-68
2021/07/03 10:26:38;;;;;;;6.70;6.10;;;23.00;99.90;;;;;;5083365;28;20469;-68
2021/07/03 10:29:17;;;;;;;9.60;6.73;;;23.00;99.90;;;;;;5082758;28;20936;-68
2021/07/03 10:31:45;;;;;;;8.00;6.70;;;23.10;99.90;;;;;;5081522;28;20851;-68
2021/07/03 10:34:12;;;;;;;7.37;6.67;;;23.20;99.90;;;;;;5082350;28;20568;-68
2021/07/03 10:36:39;;;;;;;7.87;7.07;;;23.30;99.90;;;;;;5082062;28;20490;-68
2021/07/03 10:39:06;;;;;;;7.73;6.97;;;23.30;99.90;;;;;;5080905;28;20458;-66
2021/07/03 10:41:35;;;;;;;8.63;6.73;;;23.30;99.90;;;;;;5083345;28;20458;-67
2021/07/03 10:44:08;;;;;;;9.30;7.50;;;23.30;99.90;;;;;;5081815;28;20460;-67
2021/07/03 10:46:39;;;;;;;7.03;6.43;;;23.50;99.90;;;;;;5084588;28;20450;-67
2021/07/03 10:49:07;;;;;;;7.10;6.40;;;23.60;99.90;;;;;;5083070;28;20962;-67
2021/07/03 10:51:39;;;;;;;7.20;6.50;;;23.80;99.90;;;;;;5083037;28;20454;-67
2021/07/03 10:54:16;;;;;;;6.97;6.33;;;23.80;99.90;;;;;;5082541;28;20922;-67
2021/07/03 10:56:45;;;;;;;7.77;7.10;;;23.70;99.90;;;;;;5080808;28;20441;-67
2021/07/03 10:59:15;;;;;;;6.67;5.97;;;23.40;99.90;;;;;;5080110;28;20454;-67
2021/07/03 11:01:43;;;;;;;7.40;6.50;;;23.30;99.90;;;;;;5080399;28;20461;-67
2021/07/03 11:04:15;;;;;;;9.30;6.90;;;23.10;99.90;;;;;;5078879;28;20454;-67
2021/07/03 11:06:47;;;;;;;8.40;6.97;;;23.00;99.90;;;;;;5081103;28;20461;-67
2021/07/03 11:09:21;;;;;;;6.83;5.73;;;23.10;99.90;;;;;;5082629;28;20465;-68
2021/07/03 11:11:48;;;;;;;7.23;6.50;;;23.20;99.90;;;;;;5082185;28;20450;-68
2021/07/03 11:14:18;;;;;;;7.87;7.17;;;23.30;99.90;;;;;;5083721;28;20461;-68
2021/07/03 11:16:51;;;;;;;6.17;5.60;;;23.40;99.90;;;;;;5083128;28;20508;-68
2021/07/03 11:19:23;;;;;;;7.60;5.80;;;23.50;99.90;;;;;;5082334;28;20472;-67
2021/07/03 11:21:50;;;;;;;6.00;5.40;;;23.50;78.40;;;;;;5083012;28;20482;-67
2021/07/03 11:24:17;;;;;;;6.30;5.70;;;23.50;71.00;;;;;;5082650;28;20475;-67
2021/07/03 11:26:44;;;;;;;6.40;5.20;;;23.70;66.20;;;;;;5082481;28;20461;-68
2021/07/03 11:29:10;;;;;;;5.93;5.33;;;24.00;78.10;;;;;;5082292;28;20764;-68
2021/07/03 11:31:37;;;;;;;6.40;5.80;;;24.60;73.80;;;;;;5082941;28;20740;-68
2021/07/03 11:34:05;;;;;;;6.10;5.10;;;25.20;61.40;;;;;;5083115;28;20450;-68
2021/07/03 11:36:32;;;;;;;6.20;5.60;;;25.40;50.40;;;;;;5083463;28;20454;-67
2021/07/03 11:39:00;;;;;;;6.50;5.90;;;25.30;37.40;;;;;;5083057;28;20465;-68
2021/07/03 11:41:28;;;;;;;10.57;5.63;;;25.30;27.60;;;;;;5083053;28;20482;-68
2021/07/03 11:44:02;;;;;;;6.10;5.50;;;25.20;16.60;;;;;;5082228;28;20458;-67
2021/07/03 11:46:29;;;;;;;12.97;4.97;;;25.30;22.10;;;;;;5081504;28;20933;-67
2021/07/03 11:48:56;;;;;;;6.00;5.40;;;25.80;18.80;;;;;;5082111;28;21007;-67
2021/07/03 11:51:24;;;;;;;6.70;5.90;;;26.10;2.50;;;;;;5081459;28;20462;-67
2021/07/03 11:53:54;;;;;;;6.53;5.97;;;26.20;1.00;;;;;;5082002;28;20476;-67
2021/07/03 11:56:22;;;;;;;5.67;5.17;;;26.60;1.00;;;;;;5082187;28;20458;-67
2021/07/03 11:58:50;;;;;;;5.37;4.87;;;26.90;1.00;;;;;;5082210;28;20490;-67
2021/07/03 12:01:18;;;;;;;5.17;4.67;;;27.10;1.00;;;;;;5080963;28;20482;-67
2021/07/03 12:03:46;;;;;;;5.20;4.70;;;26.80;1.00;;;;;;5081118;28;20454;-67
2021/07/03 12:06:19;;;;;;;5.20;4.70;;;26.40;1.00;;;;;;5080688;28;20454;-67
2021/07/03 12:08:48;;;;;;;6.53;5.90;;;25.90;1.00;;;;;;5080158;28;20521;-67
2021/07/03 12:11:17;;;;;;;6.40;5.67;;;25.50;1.00;;;;;;5077457;28;20821;-66
2021/07/03 12:13:47;;;;;;;6.80;5.50;;;25.00;1.00;;;;;;5076923;28;20454;-66
2021/07/03 12:16:16;;;;;;;5.53;5.03;;;24.50;1.00;;;;;;5077958;28;20468;-67
2021/07/03 12:18:45;;;;;;;5.67;4.83;;;24.40;1.00;;;;;;5077672;28;20450;-67
2021/07/03 12:21:14;;;;;;;6.00;5.40;;;24.70;1.00;;;;;;5079127;28;20577;-67
2021/07/03 12:23:54;;;;;;;5.63;5.13;;;25.10;1.00;;;;;;5081445;28;20485;-67
2021/07/03 12:26:24;;;;;;;5.60;5.10;;;25.50;1.00;;;;;;5081331;28;20527;-67
2021/07/03 12:28:52;;;;;;;5.10;4.70;;;25.70;1.00;;;;;;5081807;28;20454;-67
2021/07/03 12:31:25;;;;;;;6.50;5.17;;;25.80;1.00;;;;;;5081908;28;20462;-67
2021/07/03 12:34:05;;;;;;;5.17;4.70;;;25.80;1.00;;;;;;5082246;28;20447;-67
2021/07/03 12:36:32;;;;;;;5.30;4.90;;;25.80;1.00;;;;;;5080910;28;20449;-67
2021/07/03 12:39:09;;;;;;;6.10;5.60;;;25.60;1.00;;;;;;5078591;28;20469;-67
2021/07/03 12:41:36;;;;;;;5.90;5.30;;;25.40;1.00;;;;;;5078759;28;20470;-67